Tralee, Ireland
Current Conditions -  °F | °C
As of 10:00 AM on Tuesday 21 Oct 2014 (Local Time) from EIKY Reporting Station
Light Rain Light Rain  
Wind Chill: 50°   Ceiling: Unl
Heat Index: 50°   Visibility: 6mi
Dew Point: 43°   Wind: 18mph
Humidity: 76%   Direction: 310°NW
Pressure: 29.97"   Gusts: 35mph
Location:  52.28°N, 9.72°W
Report Text: EIKY 210900Z 31016G30KT 270V340 9999 -RA FEW015 SCT024CB 10/06 Q1015
Loading
Personal Weather Stations






























Interactive Weather Map
Tropical Storm Tracking
New forecast layout! Learn more

10-Day Weather Forecast

Advertisements
Track Severe Weather on mobile